Terminal Aerodrome Forecast
Issued by NWS Sterling, VA

Current Version | Previous Version | Text Only | Print | Product List | Glossary Off
Versions: 1 2 3 4 5 6 7 8 9 10 11 12 13 14 15 16

000
FTUS41 KLWX 031123
TAFMRB
TAF
KMRB 031123Z 0312/0412 27009KT P6SM SCT045
     FM031400 30013G23KT P6SM BKN045
     FM032300 30008KT P6SM SCT045
     FM040300 29006KT P6SM SCT250=

USA.gov is the U.S. government's official web portal to all federal, state and local government web resources and services.